sensor_id;sensor_type;location;lat;lon;timestamp;P1;durP1;ratioP1;P2;durP2;ratioP2
22144;SDS011;11238;48.730;11.566;2023-07-22T00:00:58;3.05;;;2.00;;
22144;SDS011;11238;48.730;11.566;2023-07-22T00:03:23;3.95;;;2.08;;
22144;SDS011;11238;48.730;11.566;2023-07-22T00:06:01;6.18;;;2.00;;
22144;SDS011;11238;48.730;11.566;2023-07-22T00:08:28;1.92;;;1.63;;
22144;SDS011;11238;48.730;11.566;2023-07-22T00:10:54;2.22;;;1.67;;
22144;SDS011;11238;48.730;11.566;2023-07-22T00:13:20;3.50;;;1.60;;
22144;SDS011;11238;48.730;11.566;2023-07-22T00:15:46;3.05;;;1.80;;
22144;SDS011;11238;48.730;11.566;2023-07-22T00:18:12;1.95;;;1.52;;
22144;SDS011;11238;48.730;11.566;2023-07-22T00:20:38;3.40;;;2.05;;
22144;SDS011;11238;48.730;11.566;2023-07-22T00:23:04;3.80;;;1.83;;
22144;SDS011;11238;48.730;11.566;2023-07-22T00:25:30;4.25;;;1.90;;
22144;SDS011;11238;48.730;11.566;2023-07-22T00:27:55;1.92;;;1.73;;
22144;SDS011;11238;48.730;11.566;2023-07-22T00:30:22;5.00;;;1.90;;
22144;SDS011;11238;48.730;11.566;2023-07-22T00:32:48;2.45;;;1.90;;
22144;SDS011;11238;48.730;11.566;2023-07-22T00:35:14;3.95;;;2.20;;
22144;SDS011;11238;48.730;11.566;2023-07-22T00:37:40;2.85;;;2.03;;
22144;SDS011;11238;48.730;11.566;2023-07-22T00:40:06;2.78;;;1.90;;
22144;SDS011;11238;48.730;11.566;2023-07-22T00:42:37;3.03;;;1.90;;
22144;SDS011;11238;48.730;11.566;2023-07-22T00:45:06;3.55;;;2.17;;
22144;SDS011;11238;48.730;11.566;2023-07-22T00:47:35;4.20;;;2.30;;
22144;SDS011;11238;48.730;11.566;2023-07-22T00:50:02;3.47;;;2.33;;
22144;SDS011;11238;48.730;11.566;2023-07-22T00:52:28;4.82;;;2.38;;
22144;SDS011;11238;48.730;11.566;2023-07-22T00:54:55;10.10;;;2.10;;
22144;SDS011;11238;48.730;11.566;2023-07-22T00:57:22;3.85;;;2.10;;
22144;SDS011;11238;48.730;11.566;2023-07-22T00:59:48;3.30;;;1.90;;
22144;SDS011;11238;48.730;11.566;2023-07-22T01:02:36;4.40;;;2.10;;
22144;SDS011;11238;48.730;11.566;2023-07-22T01:05:02;4.15;;;2.38;;
22144;SDS011;11238;48.730;11.566;2023-07-22T01:07:28;3.88;;;2.05;;
22144;SDS011;11238;48.730;11.566;2023-07-22T01:09:57;3.20;;;2.25;;
22144;SDS011;11238;48.730;11.566;2023-07-22T01:12:23;3.28;;;2.17;;
22144;SDS011;11238;48.730;11.566;2023-07-22T01:14:50;3.70;;;2.45;;
22144;SDS011;11238;48.730;11.566;2023-07-22T01:17:15;2.95;;;1.90;;
22144;SDS011;11238;48.730;11.566;2023-07-22T01:19:42;2.63;;;1.95;;
22144;SDS011;11238;48.730;11.566;2023-07-22T01:22:09;4.28;;;2.35;;
22144;SDS011;11238;48.730;11.566;2023-07-22T01:24:36;2.53;;;2.13;;
22144;SDS011;11238;48.730;11.566;2023-07-22T01:27:04;7.60;;;2.63;;
22144;SDS011;11238;48.730;11.566;2023-07-22T01:29:33;2.45;;;2.03;;
22144;SDS011;11238;48.730;11.566;2023-07-22T01:32:00;3.33;;;2.20;;
22144;SDS011;11238;48.730;11.566;2023-07-22T01:34:26;4.50;;;2.28;;
22144;SDS011;11238;48.730;11.566;2023-07-22T01:36:52;2.95;;;2.20;;
22144;SDS011;11238;48.730;11.566;2023-07-22T01:39:19;2.70;;;2.40;;
22144;SDS011;11238;48.730;11.566;2023-07-22T01:41:45;5.15;;;2.33;;
22144;SDS011;11238;48.730;11.566;2023-07-22T01:44:11;3.85;;;2.53;;
22144;SDS011;11238;48.730;11.566;2023-07-22T01:46:37;4.13;;;2.50;;
22144;SDS011;11238;48.730;11.566;2023-07-22T01:49:05;3.15;;;2.10;;
22144;SDS011;11238;48.730;11.566;2023-07-22T01:51:34;3.20;;;2.28;;
22144;SDS011;11238;48.730;11.566;2023-07-22T01:53:59;3.35;;;2.30;;
22144;SDS011;11238;48.730;11.566;2023-07-22T01:56:26;3.45;;;2.63;;
22144;SDS011;11238;48.730;11.566;2023-07-22T01:58:52;5.13;;;2.60;;
22144;SDS011;11238;48.730;11.566;2023-07-22T02:01:18;4.13;;;2.42;;
22144;SDS011;11238;48.730;11.566;2023-07-22T02:03:44;4.78;;;2.50;;
22144;SDS011;11238;48.730;11.566;2023-07-22T02:06:11;3.80;;;2.42;;
22144;SDS011;11238;48.730;11.566;2023-07-22T02:08:36;7.03;;;2.58;;
22144;SDS011;11238;48.730;11.566;2023-07-22T02:11:03;5.13;;;2.30;;
22144;SDS011;11238;48.730;11.566;2023-07-22T02:13:30;3.67;;;2.30;;
22144;SDS011;11238;48.730;11.566;2023-07-22T02:15:56;4.22;;;2.70;;
22144;SDS011;11238;48.730;11.566;2023-07-22T02:18:23;11.23;;;2.50;;
22144;SDS011;11238;48.730;11.566;2023-07-22T02:20:48;3.92;;;2.60;;
22144;SDS011;11238;48.730;11.566;2023-07-22T02:23:14;2.97;;;2.30;;
22144;SDS011;11238;48.730;11.566;2023-07-22T02:25:40;5.10;;;2.25;;
22144;SDS011;11238;48.730;11.566;2023-07-22T02:28:06;2.78;;;2.55;;
22144;SDS011;11238;48.730;11.566;2023-07-22T02:30:41;3.65;;;2.83;;
22144;SDS011;11238;48.730;11.566;2023-07-22T02:33:08;6.60;;;2.90;;
22144;SDS011;11238;48.730;11.566;2023-07-22T02:35:34;3.60;;;2.60;;
22144;SDS011;11238;48.730;11.566;2023-07-22T02:37:59;3.72;;;3.13;;
22144;SDS011;11238;48.730;11.566;2023-07-22T02:40:27;3.88;;;2.55;;
22144;SDS011;11238;48.730;11.566;2023-07-22T02:42:53;5.05;;;2.60;;
22144;SDS011;11238;48.730;11.566;2023-07-22T02:45:18;4.15;;;2.60;;
22144;SDS011;11238;48.730;11.566;2023-07-22T02:47:44;3.00;;;2.40;;
22144;SDS011;11238;48.730;11.566;2023-07-22T02:50:10;4.30;;;2.80;;
22144;SDS011;11238;48.730;11.566;2023-07-22T02:52:36;5.80;;;2.60;;
22144;SDS011;11238;48.730;11.566;2023-07-22T02:55:06;5.07;;;2.75;;
22144;SDS011;11238;48.730;11.566;2023-07-22T02:57:37;4.32;;;2.90;;
22144;SDS011;11238;48.730;11.566;2023-07-22T03:00:04;3.22;;;2.35;;
22144;SDS011;11238;48.730;11.566;2023-07-22T03:02:34;3.30;;;2.60;;
22144;SDS011;11238;48.730;11.566;2023-07-22T03:05:01;4.10;;;2.60;;
22144;SDS011;11238;48.730;11.566;2023-07-22T03:07:29;2.88;;;2.17;;
22144;SDS011;11238;48.730;11.566;2023-07-22T03:09:55;3.38;;;2.35;;
22144;SDS011;11238;48.730;11.566;2023-07-22T03:12:21;3.60;;;2.45;;
22144;SDS011;11238;48.730;11.566;2023-07-22T03:14:48;3.55;;;2.47;;
22144;SDS011;11238;48.730;11.566;2023-07-22T03:17:14;3.00;;;2.63;;
22144;SDS011;11238;48.730;11.566;2023-07-22T03:19:43;4.45;;;2.35;;
22144;SDS011;11238;48.730;11.566;2023-07-22T03:22:10;4.63;;;2.55;;
22144;SDS011;11238;48.730;11.566;2023-07-22T03:24:38;4.22;;;2.83;;
22144;SDS011;11238;48.730;11.566;2023-07-22T03:27:04;3.35;;;2.53;;
22144;SDS011;11238;48.730;11.566;2023-07-22T03:29:32;3.72;;;2.50;;
22144;SDS011;11238;48.730;11.566;2023-07-22T03:31:58;4.25;;;2.72;;
22144;SDS011;11238;48.730;11.566;2023-07-22T03:34:29;3.35;;;2.50;;
22144;SDS011;11238;48.730;11.566;2023-07-22T03:36:56;2.83;;;2.40;;
22144;SDS011;11238;48.730;11.566;2023-07-22T03:39:22;3.13;;;2.67;;
22144;SDS011;11238;48.730;11.566;2023-07-22T03:41:48;3.70;;;2.95;;
22144;SDS011;11238;48.730;11.566;2023-07-22T03:44:14;3.58;;;2.85;;
22144;SDS011;11238;48.730;11.566;2023-07-22T03:46:40;5.13;;;3.08;;
22144;SDS011;11238;48.730;11.566;2023-07-22T03:49:06;4.13;;;2.78;;
22144;SDS011;11238;48.730;11.566;2023-07-22T03:51:32;4.78;;;3.22;;
22144;SDS011;11238;48.730;11.566;2023-07-22T03:53:58;3.88;;;3.00;;
22144;SDS011;11238;48.730;11.566;2023-07-22T03:56:24;3.97;;;2.67;;
22144;SDS011;11238;48.730;11.566;2023-07-22T03:58:51;4.75;;;2.30;;
22144;SDS011;11238;48.730;11.566;2023-07-22T04:01:17;3.88;;;2.63;;
22144;SDS011;11238;48.730;11.566;2023-07-22T04:03:44;4.05;;;2.88;;
22144;SDS011;11238;48.730;11.566;2023-07-22T04:06:10;3.20;;;2.60;;
22144;SDS011;11238;48.730;11.566;2023-07-22T04:08:35;5.20;;;3.10;;
22144;SDS011;11238;48.730;11.566;2023-07-22T04:11:01;3.28;;;2.60;;
22144;SDS011;11238;48.730;11.566;2023-07-22T04:13:27;3.53;;;2.67;;
22144;SDS011;11238;48.730;11.566;2023-07-22T04:15:54;3.17;;;2.85;;
22144;SDS011;11238;48.730;11.566;2023-07-22T04:18:21;5.22;;;3.20;;
22144;SDS011;11238;48.730;11.566;2023-07-22T04:20:47;4.43;;;3.00;;
22144;SDS011;11238;48.730;11.566;2023-07-22T04:23:16;3.97;;;2.90;;
22144;SDS011;11238;48.730;11.566;2023-07-22T04:25:42;3.15;;;2.85;;
22144;SDS011;11238;48.730;11.566;2023-07-22T04:28:08;5.25;;;3.58;;
22144;SDS011;11238;48.730;11.566;2023-07-22T04:30:57;3.65;;;2.90;;
22144;SDS011;11238;48.730;11.566;2023-07-22T04:33:24;3.45;;;3.00;;
22144;SDS011;11238;48.730;11.566;2023-07-22T04:35:53;4.45;;;3.10;;
22144;SDS011;11238;48.730;11.566;2023-07-22T04:38:22;3.63;;;2.90;;
22144;SDS011;11238;48.730;11.566;2023-07-22T04:40:48;6.30;;;3.22;;
22144;SDS011;11238;48.730;11.566;2023-07-22T04:43:13;5.10;;;3.20;;
22144;SDS011;11238;48.730;11.566;2023-07-22T04:45:39;5.55;;;2.97;;
22144;SDS011;11238;48.730;11.566;2023-07-22T04:48:06;4.25;;;3.30;;
22144;SDS011;11238;48.730;11.566;2023-07-22T04:50:32;4.82;;;2.90;;
22144;SDS011;11238;48.730;11.566;2023-07-22T04:52:58;4.78;;;3.15;;
22144;SDS011;11238;48.730;11.566;2023-07-22T04:55:25;4.22;;;3.22;;
22144;SDS011;11238;48.730;11.566;2023-07-22T04:57:51;4.82;;;3.28;;
22144;SDS011;11238;48.730;11.566;2023-07-22T05:00:17;6.10;;;3.00;;
22144;SDS011;11238;48.730;11.566;2023-07-22T05:02:44;5.55;;;2.92;;
22144;SDS011;11238;48.730;11.566;2023-07-22T05:05:14;5.43;;;3.25;;
22144;SDS011;11238;48.730;11.566;2023-07-22T05:07:40;3.05;;;2.75;;
22144;SDS011;11238;48.730;11.566;2023-07-22T05:10:06;3.28;;;2.83;;
22144;SDS011;11238;48.730;11.566;2023-07-22T05:12:40;4.10;;;3.25;;
22144;SDS011;11238;48.730;11.566;2023-07-22T05:15:07;4.68;;;3.33;;
22144;SDS011;11238;48.730;11.566;2023-07-22T05:17:35;5.72;;;3.05;;
22144;SDS011;11238;48.730;11.566;2023-07-22T05:20:00;3.25;;;2.70;;
22144;SDS011;11238;48.730;11.566;2023-07-22T05:22:26;5.82;;;3.15;;
22144;SDS011;11238;48.730;11.566;2023-07-22T05:24:52;3.50;;;3.03;;
22144;SDS011;11238;48.730;11.566;2023-07-22T05:27:17;6.20;;;2.85;;
22144;SDS011;11238;48.730;11.566;2023-07-22T05:29:44;15.10;;;3.00;;
22144;SDS011;11238;48.730;11.566;2023-07-22T05:32:11;7.53;;;3.75;;
22144;SDS011;11238;48.730;11.566;2023-07-22T05:34:36;5.40;;;2.75;;
22144;SDS011;11238;48.730;11.566;2023-07-22T05:37:02;4.18;;;2.60;;
22144;SDS011;11238;48.730;11.566;2023-07-22T05:39:28;4.90;;;3.08;;
22144;SDS011;11238;48.730;11.566;2023-07-22T05:41:54;3.60;;;2.78;;
22144;SDS011;11238;48.730;11.566;2023-07-22T05:44:21;3.80;;;2.92;;
22144;SDS011;11238;48.730;11.566;2023-07-22T05:46:47;5.18;;;3.50;;
22144;SDS011;11238;48.730;11.566;2023-07-22T05:49:13;5.30;;;4.00;;
22144;SDS011;11238;48.730;11.566;2023-07-22T05:51:38;4.35;;;3.33;;
22144;SDS011;11238;48.730;11.566;2023-07-22T05:54:04;5.05;;;3.30;;
22144;SDS011;11238;48.730;11.566;2023-07-22T05:56:31;4.68;;;3.65;;
22144;SDS011;11238;48.730;11.566;2023-07-22T05:58:59;4.22;;;3.55;;
22144;SDS011;11238;48.730;11.566;2023-07-22T06:01:25;5.35;;;3.50;;
22144;SDS011;11238;48.730;11.566;2023-07-22T06:03:51;5.70;;;3.67;;
22144;SDS011;11238;48.730;11.566;2023-07-22T06:06:18;4.85;;;3.28;;
22144;SDS011;11238;48.730;11.566;2023-07-22T06:08:44;3.78;;;3.20;;
22144;SDS011;11238;48.730;11.566;2023-07-22T06:11:10;6.10;;;3.28;;
22144;SDS011;11238;48.730;11.566;2023-07-22T06:13:35;4.65;;;3.22;;
22144;SDS011;11238;48.730;11.566;2023-07-22T06:16:02;5.43;;;3.33;;
22144;SDS011;11238;48.730;11.566;2023-07-22T06:18:27;4.63;;;3.20;;
22144;SDS011;11238;48.730;11.566;2023-07-22T06:20:54;5.72;;;3.10;;
22144;SDS011;11238;48.730;11.566;2023-07-22T06:23:19;4.18;;;3.10;;
22144;SDS011;11238;48.730;11.566;2023-07-22T06:25:45;4.65;;;2.80;;
22144;SDS011;11238;48.730;11.566;2023-07-22T06:28:10;4.15;;;2.55;;
22144;SDS011;11238;48.730;11.566;2023-07-22T06:30:36;3.47;;;2.65;;
22144;SDS011;11238;48.730;11.566;2023-07-22T06:33:02;3.55;;;2.50;;
22144;SDS011;11238;48.730;11.566;2023-07-22T06:35:28;5.45;;;2.97;;
22144;SDS011;11238;48.730;11.566;2023-07-22T06:37:54;4.90;;;2.90;;
22144;SDS011;11238;48.730;11.566;2023-07-22T06:40:20;5.28;;;3.00;;
22144;SDS011;11238;48.730;11.566;2023-07-22T06:42:46;4.22;;;2.83;;
22144;SDS011;11238;48.730;11.566;2023-07-22T06:45:12;8.18;;;2.80;;
22144;SDS011;11238;48.730;11.566;2023-07-22T06:47:37;3.90;;;2.80;;
22144;SDS011;11238;48.730;11.566;2023-07-22T06:50:03;4.97;;;2.55;;
22144;SDS011;11238;48.730;11.566;2023-07-22T06:52:30;4.15;;;2.70;;
22144;SDS011;11238;48.730;11.566;2023-07-22T06:54:56;6.70;;;3.30;;
22144;SDS011;11238;48.730;11.566;2023-07-22T06:57:22;3.75;;;2.50;;
22144;SDS011;11238;48.730;11.566;2023-07-22T06:59:53;4.50;;;2.75;;
22144;SDS011;11238;48.730;11.566;2023-07-22T07:02:19;7.03;;;3.38;;
22144;SDS011;11238;48.730;11.566;2023-07-22T07:04:46;4.50;;;3.00;;
22144;SDS011;11238;48.730;11.566;2023-07-22T07:07:12;3.92;;;2.90;;
22144;SDS011;11238;48.730;11.566;2023-07-22T07:09:39;3.55;;;3.00;;
22144;SDS011;11238;48.730;11.566;2023-07-22T07:12:06;4.63;;;3.08;;
22144;SDS011;11238;48.730;11.566;2023-07-22T07:14:33;4.30;;;2.80;;
22144;SDS011;11238;48.730;11.566;2023-07-22T07:17:00;4.90;;;2.70;;
22144;SDS011;11238;48.730;11.566;2023-07-22T07:19:26;3.25;;;2.50;;
22144;SDS011;11238;48.730;11.566;2023-07-22T07:21:52;6.03;;;2.88;;
22144;SDS011;11238;48.730;11.566;2023-07-22T07:24:18;5.18;;;2.70;;
22144;SDS011;11238;48.730;11.566;2023-07-22T07:26:43;6.47;;;2.60;;
22144;SDS011;11238;48.730;11.566;2023-07-22T07:29:10;4.30;;;3.15;;
22144;SDS011;11238;48.730;11.566;2023-07-22T07:31:36;5.43;;;2.50;;
22144;SDS011;11238;48.730;11.566;2023-07-22T07:34:02;5.13;;;2.63;;
22144;SDS011;11238;48.730;11.566;2023-07-22T07:36:28;4.15;;;2.45;;
22144;SDS011;11238;48.730;11.566;2023-07-22T07:38:54;3.90;;;2.72;;
22144;SDS011;11238;48.730;11.566;2023-07-22T07:41:20;8.55;;;2.70;;
22144;SDS011;11238;48.730;11.566;2023-07-22T07:43:46;2.85;;;2.45;;
22144;SDS011;11238;48.730;11.566;2023-07-22T07:46:20;3.75;;;2.60;;
22144;SDS011;11238;48.730;11.566;2023-07-22T07:48:54;3.95;;;2.60;;
22144;SDS011;11238;48.730;11.566;2023-07-22T07:51:21;5.07;;;2.50;;
22144;SDS011;11238;48.730;11.566;2023-07-22T07:53:55;5.32;;;2.00;;
22144;SDS011;11238;48.730;11.566;2023-07-22T07:56:21;4.03;;;2.03;;
22144;SDS011;11238;48.730;11.566;2023-07-22T07:58:48;5.63;;;2.70;;
22144;SDS011;11238;48.730;11.566;2023-07-22T08:01:15;4.10;;;2.25;;
22144;SDS011;11238;48.730;11.566;2023-07-22T08:03:42;3.42;;;2.40;;
22144;SDS011;11238;48.730;11.566;2023-07-22T08:06:09;3.78;;;2.38;;
22144;SDS011;11238;48.730;11.566;2023-07-22T08:08:35;5.07;;;2.50;;
22144;SDS011;11238;48.730;11.566;2023-07-22T08:11:12;6.55;;;2.55;;
22144;SDS011;11238;48.730;11.566;2023-07-22T08:13:39;3.33;;;2.40;;
22144;SDS011;11238;48.730;11.566;2023-07-22T08:16:07;3.47;;;2.45;;
22144;SDS011;11238;48.730;11.566;2023-07-22T08:18:34;3.03;;;2.20;;
22144;SDS011;11238;48.730;11.566;2023-07-22T08:21:01;3.75;;;2.20;;
22144;SDS011;11238;48.730;11.566;2023-07-22T08:23:29;2.15;;;1.80;;
22144;SDS011;11238;48.730;11.566;2023-07-22T08:25:55;4.50;;;2.17;;
22144;SDS011;11238;48.730;11.566;2023-07-22T08:28:21;5.95;;;2.10;;
22144;SDS011;11238;48.730;11.566;2023-07-22T08:30:50;3.45;;;2.22;;
22144;SDS011;11238;48.730;11.566;2023-07-22T08:33:19;3.13;;;2.03;;
22144;SDS011;11238;48.730;11.566;2023-07-22T08:35:45;2.80;;;1.85;;
22144;SDS011;11238;48.730;11.566;2023-07-22T08:38:13;4.63;;;1.60;;
22144;SDS011;11238;48.730;11.566;2023-07-22T08:40:40;2.53;;;1.75;;
22144;SDS011;11238;48.730;11.566;2023-07-22T08:43:09;2.17;;;1.75;;
22144;SDS011;11238;48.730;11.566;2023-07-22T08:45:37;6.82;;;2.30;;
22144;SDS011;11238;48.730;11.566;2023-07-22T08:48:05;3.00;;;2.00;;
22144;SDS011;11238;48.730;11.566;2023-07-22T08:51:00;2.25;;;1.75;;
22144;SDS011;11238;48.730;11.566;2023-07-22T08:53:23;4.10;;;2.05;;
22144;SDS011;11238;48.730;11.566;2023-07-22T08:55:50;4.20;;;2.10;;
22144;SDS011;11238;48.730;11.566;2023-07-22T08:58:17;2.38;;;1.75;;
22144;SDS011;11238;48.730;11.566;2023-07-22T09:00:43;2.40;;;1.80;;
22144;SDS011;11238;48.730;11.566;2023-07-22T09:03:09;2.58;;;1.83;;
22144;SDS011;11238;48.730;11.566;2023-07-22T09:05:37;2.42;;;1.80;;
22144;SDS011;11238;48.730;11.566;2023-07-22T09:08:04;1.90;;;1.70;;
22144;SDS011;11238;48.730;11.566;2023-07-22T09:10:32;2.88;;;1.88;;
22144;SDS011;11238;48.730;11.566;2023-07-22T09:13:02;2.42;;;1.90;;
22144;SDS011;11238;48.730;11.566;2023-07-22T09:15:28;2.33;;;1.75;;
22144;SDS011;11238;48.730;11.566;2023-07-22T09:17:54;3.22;;;1.83;;
22144;SDS011;11238;48.730;11.566;2023-07-22T09:20:20;2.38;;;1.70;;
22144;SDS011;11238;48.730;11.566;2023-07-22T09:22:49;5.75;;;1.85;;
22144;SDS011;11238;48.730;11.566;2023-07-22T09:25:17;2.03;;;1.70;;
22144;SDS011;11238;48.730;11.566;2023-07-22T09:27:48;4.80;;;2.17;;
22144;SDS011;11238;48.730;11.566;2023-07-22T09:32:46;2.33;;;1.60;;
22144;SDS011;11238;48.730;11.566;2023-07-22T09:35:12;2.08;;;1.50;;
22144;SDS011;11238;48.730;11.566;2023-07-22T09:37:38;2.50;;;1.70;;
22144;SDS011;11238;48.730;11.566;2023-07-22T09:40:17;3.15;;;2.05;;
22144;SDS011;11238;48.730;11.566;2023-07-22T09:43:00;4.78;;;2.17;;
22144;SDS011;11238;48.730;11.566;2023-07-22T09:45:28;5.43;;;2.10;;
22144;SDS011;11238;48.730;11.566;2023-07-22T09:47:55;3.30;;;2.00;;
22144;SDS011;11238;48.730;11.566;2023-07-22T09:50:22;5.25;;;2.00;;
22144;SDS011;11238;48.730;11.566;2023-07-22T09:52:51;1.90;;;1.70;;
22144;SDS011;11238;48.730;11.566;2023-07-22T09:55:25;4.55;;;1.63;;
22144;SDS011;11238;48.730;11.566;2023-07-22T10:00:30;3.13;;;1.90;;
22144;SDS011;11238;48.730;11.566;2023-07-22T10:02:59;2.63;;;1.92;;
22144;SDS011;11238;48.730;11.566;2023-07-22T10:05:26;2.88;;;1.70;;
22144;SDS011;11238;48.730;11.566;2023-07-22T10:07:58;4.63;;;1.63;;
22144;SDS011;11238;48.730;11.566;2023-07-22T10:10:30;3.45;;;1.73;;
22144;SDS011;11238;48.730;11.566;2023-07-22T10:13:03;3.00;;;1.70;;
22144;SDS011;11238;48.730;11.566;2023-07-22T10:15:31;2.47;;;1.60;;
22144;SDS011;11238;48.730;11.566;2023-07-22T10:18:02;2.22;;;1.60;;
22144;SDS011;11238;48.730;11.566;2023-07-22T10:20:29;2.47;;;1.90;;
22144;SDS011;11238;48.730;11.566;2023-07-22T10:22:55;3.35;;;1.95;;
22144;SDS011;11238;48.730;11.566;2023-07-22T10:25:21;3.13;;;1.70;;
22144;SDS011;11238;48.730;11.566;2023-07-22T10:27:49;2.15;;;1.63;;
22144;SDS011;11238;48.730;11.566;2023-07-22T10:30:17;2.60;;;1.90;;
22144;SDS011;11238;48.730;11.566;2023-07-22T10:32:45;2.85;;;1.60;;
22144;SDS011;11238;48.730;11.566;2023-07-22T10:35:16;3.60;;;1.60;;
22144;SDS011;11238;48.730;11.566;2023-07-22T10:38:09;3.28;;;1.73;;
22144;SDS011;11238;48.730;11.566;2023-07-22T10:43:38;2.38;;;1.60;;
22144;SDS011;11238;48.730;11.566;2023-07-22T10:46:08;3.55;;;1.70;;
22144;SDS011;11238;48.730;11.566;2023-07-22T10:48:38;4.32;;;1.70;;
22144;SDS011;11238;48.730;11.566;2023-07-22T10:51:07;3.92;;;1.65;;
22144;SDS011;11238;48.730;11.566;2023-07-22T10:53:37;4.38;;;1.60;;
22144;SDS011;11238;48.730;11.566;2023-07-22T11:11:59;2.95;;;1.27;;
22144;SDS011;11238;48.730;11.566;2023-07-22T11:14:32;3.40;;;1.60;;
22144;SDS011;11238;48.730;11.566;2023-07-22T11:17:10;1.80;;;1.42;;
22144;SDS011;11238;48.730;11.566;2023-07-22T11:19:36;2.65;;;1.50;;
22144;SDS011;11238;48.730;11.566;2023-07-22T11:22:02;2.33;;;1.40;;
22144;SDS011;11238;48.730;11.566;2023-07-22T11:24:29;4.00;;;1.45;;
22144;SDS011;11238;48.730;11.566;2023-07-22T11:26:57;2.42;;;1.67;;
22144;SDS011;11238;48.730;11.566;2023-07-22T11:29:23;2.72;;;1.60;;
22144;SDS011;11238;48.730;11.566;2023-07-22T11:31:49;4.22;;;1.50;;
22144;SDS011;11238;48.730;11.566;2023-07-22T11:34:18;4.28;;;1.50;;
22144;SDS011;11238;48.730;11.566;2023-07-22T11:36:45;2.97;;;1.45;;
22144;SDS011;11238;48.730;11.566;2023-07-22T11:39:13;2.00;;;1.50;;
22144;SDS011;11238;48.730;11.566;2023-07-22T11:41:40;3.70;;;1.35;;
22144;SDS011;11238;48.730;11.566;2023-07-22T11:44:07;2.65;;;1.58;;
22144;SDS011;11238;48.730;11.566;2023-07-22T11:46:35;3.55;;;1.77;;
22144;SDS011;11238;48.730;11.566;2023-07-22T11:49:11;2.97;;;1.60;;
22144;SDS011;11238;48.730;11.566;2023-07-22T11:52:03;2.20;;;1.50;;
22144;SDS011;11238;48.730;11.566;2023-07-22T11:54:40;3.33;;;1.17;;
22144;SDS011;11238;48.730;11.566;2023-07-22T11:57:14;2.83;;;1.63;;
22144;SDS011;11238;48.730;11.566;2023-07-22T11:59:44;2.53;;;1.63;;
22144;SDS011;11238;48.730;11.566;2023-07-22T12:02:15;2.95;;;1.70;;
22144;SDS011;11238;48.730;11.566;2023-07-22T12:04:42;2.92;;;1.38;;
22144;SDS011;11238;48.730;11.566;2023-07-22T12:09:55;3.20;;;1.40;;
22144;SDS011;11238;48.730;11.566;2023-07-22T12:12:32;4.20;;;1.70;;
22144;SDS011;11238;48.730;11.566;2023-07-22T12:15:12;5.28;;;1.83;;
22144;SDS011;11238;48.730;11.566;2023-07-22T12:17:50;4.03;;;1.88;;
22144;SDS011;11238;48.730;11.566;2023-07-22T12:20:19;3.17;;;2.05;;
22144;SDS011;11238;48.730;11.566;2023-07-22T12:22:48;3.10;;;1.52;;
22144;SDS011;11238;48.730;11.566;2023-07-22T12:25:14;4.05;;;1.80;;
22144;SDS011;11238;48.730;11.566;2023-07-22T12:27:39;2.83;;;1.65;;
22144;SDS011;11238;48.730;11.566;2023-07-22T12:30:05;2.13;;;1.60;;
22144;SDS011;11238;48.730;11.566;2023-07-22T12:32:33;4.20;;;1.80;;
22144;SDS011;11238;48.730;11.566;2023-07-22T12:34:58;3.33;;;2.30;;
22144;SDS011;11238;48.730;11.566;2023-07-22T12:37:24;2.47;;;1.65;;
22144;SDS011;11238;48.730;11.566;2023-07-22T12:39:51;3.10;;;1.60;;
22144;SDS011;11238;48.730;11.566;2023-07-22T12:42:16;3.75;;;1.58;;
22144;SDS011;11238;48.730;11.566;2023-07-22T12:44:42;2.15;;;1.50;;
22144;SDS011;11238;48.730;11.566;2023-07-22T12:47:08;2.75;;;1.50;;
22144;SDS011;11238;48.730;11.566;2023-07-22T12:49:34;3.25;;;1.48;;
22144;SDS011;11238;48.730;11.566;2023-07-22T12:52:00;7.25;;;1.83;;
22144;SDS011;11238;48.730;11.566;2023-07-22T12:54:30;3.15;;;1.60;;
22144;SDS011;11238;48.730;11.566;2023-07-22T12:56:57;4.80;;;1.85;;
22144;SDS011;11238;48.730;11.566;2023-07-22T12:59:22;5.35;;;2.00;;
22144;SDS011;11238;48.730;11.566;2023-07-22T13:01:48;3.13;;;1.85;;
22144;SDS011;11238;48.730;11.566;2023-07-22T13:04:14;4.20;;;1.70;;
22144;SDS011;11238;48.730;11.566;2023-07-22T13:06:43;3.80;;;1.55;;
22144;SDS011;11238;48.730;11.566;2023-07-22T13:09:09;1.65;;;1.55;;
22144;SDS011;11238;48.730;11.566;2023-07-22T13:11:34;2.45;;;1.60;;
22144;SDS011;11238;48.730;11.566;2023-07-22T13:14:01;2.75;;;1.67;;
22144;SDS011;11238;48.730;11.566;2023-07-22T13:16:27;2.28;;;1.73;;
22144;SDS011;11238;48.730;11.566;2023-07-22T13:18:54;1.88;;;1.63;;
22144;SDS011;11238;48.730;11.566;2023-07-22T13:21:20;3.53;;;1.60;;
22144;SDS011;11238;48.730;11.566;2023-07-22T13:23:46;2.88;;;2.00;;
22144;SDS011;11238;48.730;11.566;2023-07-22T13:26:12;2.28;;;1.63;;
22144;SDS011;11238;48.730;11.566;2023-07-22T13:28:37;3.20;;;1.73;;
22144;SDS011;11238;48.730;11.566;2023-07-22T13:31:03;2.55;;;1.63;;
22144;SDS011;11238;48.730;11.566;2023-07-22T13:33:29;4.20;;;1.90;;
22144;SDS011;11238;48.730;11.566;2023-07-22T13:35:56;3.72;;;1.65;;
22144;SDS011;11238;48.730;11.566;2023-07-22T13:38:21;2.38;;;1.50;;
22144;SDS011;11238;48.730;11.566;2023-07-22T13:40:47;3.15;;;1.73;;
22144;SDS011;11238;48.730;11.566;2023-07-22T13:43:13;4.03;;;1.70;;
22144;SDS011;11238;48.730;11.566;2023-07-22T13:45:39;2.70;;;1.80;;
22144;SDS011;11238;48.730;11.566;2023-07-22T13:48:06;5.78;;;1.70;;
22144;SDS011;11238;48.730;11.566;2023-07-22T13:50:32;3.00;;;1.58;;
22144;SDS011;11238;48.730;11.566;2023-07-22T13:52:58;3.08;;;1.73;;
22144;SDS011;11238;48.730;11.566;2023-07-22T13:55:24;2.30;;;1.60;;
22144;SDS011;11238;48.730;11.566;2023-07-22T13:57:49;2.15;;;1.75;;
22144;SDS011;11238;48.730;11.566;2023-07-22T14:00:15;2.88;;;1.80;;
22144;SDS011;11238;48.730;11.566;2023-07-22T14:02:41;3.10;;;1.92;;
22144;SDS011;11238;48.730;11.566;2023-07-22T14:05:07;4.93;;;1.95;;
22144;SDS011;11238;48.730;11.566;2023-07-22T14:07:34;3.88;;;1.88;;
22144;SDS011;11238;48.730;11.566;2023-07-22T14:10:00;3.80;;;1.80;;
22144;SDS011;11238;48.730;11.566;2023-07-22T14:12:26;4.40;;;1.80;;
22144;SDS011;11238;48.730;11.566;2023-07-22T14:14:52;4.72;;;1.70;;
22144;SDS011;11238;48.730;11.566;2023-07-22T14:17:17;5.82;;;1.80;;
22144;SDS011;11238;48.730;11.566;2023-07-22T14:19:43;2.55;;;1.60;;
22144;SDS011;11238;48.730;11.566;2023-07-22T14:22:09;2.45;;;1.60;;
22144;SDS011;11238;48.730;11.566;2023-07-22T14:24:35;2.50;;;1.75;;
22144;SDS011;11238;48.730;11.566;2023-07-22T14:27:01;2.53;;;1.60;;
22144;SDS011;11238;48.730;11.566;2023-07-22T14:29:26;3.78;;;1.80;;
22144;SDS011;11238;48.730;11.566;2023-07-22T14:31:54;2.63;;;1.75;;
22144;SDS011;11238;48.730;11.566;2023-07-22T14:34:22;5.72;;;1.75;;
22144;SDS011;11238;48.730;11.566;2023-07-22T14:36:48;6.63;;;1.80;;
22144;SDS011;11238;48.730;11.566;2023-07-22T14:39:14;2.00;;;1.80;;
22144;SDS011;11238;48.730;11.566;2023-07-22T14:41:40;4.35;;;1.65;;
22144;SDS011;11238;48.730;11.566;2023-07-22T14:44:08;2.67;;;1.70;;
22144;SDS011;11238;48.730;11.566;2023-07-22T14:46:34;2.88;;;1.60;;
22144;SDS011;11238;48.730;11.566;2023-07-22T14:48:59;7.00;;;1.85;;
22144;SDS011;11238;48.730;11.566;2023-07-22T14:51:26;4.15;;;2.35;;
22144;SDS011;11238;48.730;11.566;2023-07-22T14:53:52;3.83;;;1.60;;
22144;SDS011;11238;48.730;11.566;2023-07-22T14:56:18;2.88;;;1.83;;
22144;SDS011;11238;48.730;11.566;2023-07-22T14:58:44;3.47;;;1.90;;
22144;SDS011;11238;48.730;11.566;2023-07-22T15:01:10;2.25;;;1.67;;